sensor_id;sensor_type;location;lat;lon;timestamp;P1;durP1;ratioP1;P2;durP2;ratioP2
10890;SDS011;5498;50.928;11.598;2022-12-29T00:01:56;0.80;;;0.80;;
10890;SDS011;5498;50.928;11.598;2022-12-29T00:04:58;1.80;;;1.03;;
10890;SDS011;5498;50.928;11.598;2022-12-29T00:08:00;1.60;;;1.00;;
10890;SDS011;5498;50.928;11.598;2022-12-29T00:11:02;1.43;;;1.30;;
10890;SDS011;5498;50.928;11.598;2022-12-29T00:14:04;1.70;;;1.20;;
10890;SDS011;5498;50.928;11.598;2022-12-29T00:17:33;2.27;;;0.90;;
10890;SDS011;5498;50.928;11.598;2022-12-29T00:20:36;0.83;;;0.83;;
10890;SDS011;5498;50.928;11.598;2022-12-29T00:23:56;3.23;;;1.23;;
10890;SDS011;5498;50.928;11.598;2022-12-29T00:27:24;0.93;;;0.87;;
10890;SDS011;5498;50.928;11.598;2022-12-29T00:30:46;1.77;;;1.00;;
10890;SDS011;5498;50.928;11.598;2022-12-29T00:34:08;1.43;;;1.07;;
10890;SDS011;5498;50.928;11.598;2022-12-29T00:37:30;1.97;;;0.90;;
10890;SDS011;5498;50.928;11.598;2022-12-29T00:40:45;1.90;;;1.03;;
10890;SDS011;5498;50.928;11.598;2022-12-29T00:44:05;1.83;;;1.00;;
10890;SDS011;5498;50.928;11.598;2022-12-29T00:47:10;2.40;;;1.10;;
10890;SDS011;5498;50.928;11.598;2022-12-29T00:50:13;1.63;;;1.30;;
10890;SDS011;5498;50.928;11.598;2022-12-29T00:53:14;1.17;;;0.90;;
10890;SDS011;5498;50.928;11.598;2022-12-29T00:56:16;3.00;;;1.57;;
10890;SDS011;5498;50.928;11.598;2022-12-29T00:59:18;1.17;;;0.90;;
10890;SDS011;5498;50.928;11.598;2022-12-29T01:02:21;1.30;;;1.00;;
10890;SDS011;5498;50.928;11.598;2022-12-29T01:05:24;1.70;;;1.30;;
10890;SDS011;5498;50.928;11.598;2022-12-29T01:08:26;1.67;;;1.33;;
10890;SDS011;5498;50.928;11.598;2022-12-29T01:11:28;1.60;;;1.00;;
10890;SDS011;5498;50.928;11.598;2022-12-29T01:14:29;1.30;;;1.20;;
10890;SDS011;5498;50.928;11.598;2022-12-29T01:17:31;3.23;;;1.30;;
10890;SDS011;5498;50.928;11.598;2022-12-29T01:20:34;4.33;;;1.10;;
10890;SDS011;5498;50.928;11.598;2022-12-29T01:23:36;1.37;;;1.20;;
10890;SDS011;5498;50.928;11.598;2022-12-29T01:26:39;5.77;;;0.90;;
10890;SDS011;5498;50.928;11.598;2022-12-29T01:29:41;4.10;;;1.20;;
10890;SDS011;5498;50.928;11.598;2022-12-29T01:32:43;1.73;;;1.13;;
10890;SDS011;5498;50.928;11.598;2022-12-29T01:35:46;1.10;;;1.00;;
10890;SDS011;5498;50.928;11.598;2022-12-29T01:38:48;1.73;;;1.47;;
10890;SDS011;5498;50.928;11.598;2022-12-29T01:41:50;1.23;;;0.90;;
10890;SDS011;5498;50.928;11.598;2022-12-29T01:44:53;1.33;;;1.10;;
10890;SDS011;5498;50.928;11.598;2022-12-29T01:47:57;1.40;;;1.07;;
10890;SDS011;5498;50.928;11.598;2022-12-29T01:51:03;1.77;;;1.03;;
10890;SDS011;5498;50.928;11.598;2022-12-29T01:54:07;1.87;;;1.20;;
10890;SDS011;5498;50.928;11.598;2022-12-29T01:57:13;1.03;;;0.97;;
10890;SDS011;5498;50.928;11.598;2022-12-29T02:00:21;1.43;;;1.27;;
10890;SDS011;5498;50.928;11.598;2022-12-29T02:03:23;1.43;;;1.20;;
10890;SDS011;5498;50.928;11.598;2022-12-29T02:06:31;1.33;;;1.20;;
10890;SDS011;5498;50.928;11.598;2022-12-29T02:09:38;1.43;;;1.20;;
10890;SDS011;5498;50.928;11.598;2022-12-29T02:12:40;2.03;;;1.30;;
10890;SDS011;5498;50.928;11.598;2022-12-29T02:15:45;1.87;;;1.30;;
10890;SDS011;5498;50.928;11.598;2022-12-29T02:18:59;1.13;;;0.80;;
10890;SDS011;5498;50.928;11.598;2022-12-29T02:22:34;4.27;;;0.80;;
10890;SDS011;5498;50.928;11.598;2022-12-29T02:25:54;1.10;;;1.00;;
10890;SDS011;5498;50.928;11.598;2022-12-29T02:29:21;2.80;;;1.20;;
10890;SDS011;5498;50.928;11.598;2022-12-29T02:32:47;1.30;;;1.10;;
10890;SDS011;5498;50.928;11.598;2022-12-29T02:35:57;2.43;;;1.30;;
10890;SDS011;5498;50.928;11.598;2022-12-29T02:39:11;1.70;;;1.10;;
10890;SDS011;5498;50.928;11.598;2022-12-29T02:42:23;1.73;;;1.27;;
10890;SDS011;5498;50.928;11.598;2022-12-29T02:45:35;1.83;;;1.13;;
10890;SDS011;5498;50.928;11.598;2022-12-29T02:48:48;3.63;;;1.53;;
10890;SDS011;5498;50.928;11.598;2022-12-29T02:51:58;2.67;;;0.93;;
10890;SDS011;5498;50.928;11.598;2022-12-29T02:55:04;2.83;;;1.47;;
10890;SDS011;5498;50.928;11.598;2022-12-29T02:58:15;2.10;;;1.17;;
10890;SDS011;5498;50.928;11.598;2022-12-29T03:01:22;2.97;;;1.47;;
10890;SDS011;5498;50.928;11.598;2022-12-29T03:04:36;3.37;;;1.07;;
10890;SDS011;5498;50.928;11.598;2022-12-29T03:07:51;2.37;;;1.17;;
10890;SDS011;5498;50.928;11.598;2022-12-29T03:11:03;2.70;;;1.23;;
10890;SDS011;5498;50.928;11.598;2022-12-29T03:14:29;2.37;;;1.37;;
10890;SDS011;5498;50.928;11.598;2022-12-29T03:17:57;1.20;;;1.03;;
10890;SDS011;5498;50.928;11.598;2022-12-29T03:21:05;1.17;;;1.10;;
10890;SDS011;5498;50.928;11.598;2022-12-29T03:24:12;1.30;;;1.20;;
10890;SDS011;5498;50.928;11.598;2022-12-29T03:27:17;2.00;;;1.13;;
10890;SDS011;5498;50.928;11.598;2022-12-29T03:30:31;1.63;;;1.10;;
10890;SDS011;5498;50.928;11.598;2022-12-29T03:33:35;1.43;;;1.13;;
10890;SDS011;5498;50.928;11.598;2022-12-29T03:36:42;1.17;;;1.07;;
10890;SDS011;5498;50.928;11.598;2022-12-29T03:39:51;1.47;;;1.10;;
10890;SDS011;5498;50.928;11.598;2022-12-29T03:42:53;0.70;;;0.70;;
10890;SDS011;5498;50.928;11.598;2022-12-29T03:45:57;2.10;;;1.23;;
10890;SDS011;5498;50.928;11.598;2022-12-29T03:48:59;2.60;;;1.00;;
10890;SDS011;5498;50.928;11.598;2022-12-29T03:52:02;2.13;;;1.07;;
10890;SDS011;5498;50.928;11.598;2022-12-29T03:55:05;2.97;;;0.97;;
10890;SDS011;5498;50.928;11.598;2022-12-29T03:58:07;5.90;;;1.03;;
10890;SDS011;5498;50.928;11.598;2022-12-29T04:01:09;1.30;;;0.77;;
10890;SDS011;5498;50.928;11.598;2022-12-29T04:04:11;1.00;;;0.80;;
10890;SDS011;5498;50.928;11.598;2022-12-29T04:07:15;3.87;;;1.33;;
10890;SDS011;5498;50.928;11.598;2022-12-29T04:10:17;3.33;;;1.40;;
10890;SDS011;5498;50.928;11.598;2022-12-29T04:13:19;1.10;;;1.00;;
10890;SDS011;5498;50.928;11.598;2022-12-29T04:16:21;3.40;;;1.10;;
10890;SDS011;5498;50.928;11.598;2022-12-29T04:19:23;2.70;;;1.30;;
10890;SDS011;5498;50.928;11.598;2022-12-29T04:22:26;1.47;;;0.90;;
10890;SDS011;5498;50.928;11.598;2022-12-29T04:25:28;2.10;;;1.13;;
10890;SDS011;5498;50.928;11.598;2022-12-29T04:28:31;1.50;;;1.07;;
10890;SDS011;5498;50.928;11.598;2022-12-29T04:31:39;2.97;;;0.93;;
10890;SDS011;5498;50.928;11.598;2022-12-29T04:34:41;0.80;;;0.80;;
10890;SDS011;5498;50.928;11.598;2022-12-29T04:37:46;1.33;;;1.23;;
10890;SDS011;5498;50.928;11.598;2022-12-29T04:40:49;1.17;;;1.00;;
10890;SDS011;5498;50.928;11.598;2022-12-29T04:43:51;3.33;;;1.13;;
10890;SDS011;5498;50.928;11.598;2022-12-29T04:46:53;1.03;;;0.90;;
10890;SDS011;5498;50.928;11.598;2022-12-29T04:49:55;1.87;;;1.20;;
10890;SDS011;5498;50.928;11.598;2022-12-29T04:52:59;2.07;;;1.27;;
10890;SDS011;5498;50.928;11.598;2022-12-29T04:56:01;2.40;;;1.00;;
10890;SDS011;5498;50.928;11.598;2022-12-29T04:59:02;1.30;;;1.20;;
10890;SDS011;5498;50.928;11.598;2022-12-29T05:02:04;2.63;;;1.10;;
10890;SDS011;5498;50.928;11.598;2022-12-29T05:05:08;1.30;;;1.20;;
10890;SDS011;5498;50.928;11.598;2022-12-29T05:08:11;2.40;;;1.23;;
10890;SDS011;5498;50.928;11.598;2022-12-29T05:11:13;1.57;;;1.10;;
10890;SDS011;5498;50.928;11.598;2022-12-29T05:14:15;1.60;;;1.00;;
10890;SDS011;5498;50.928;11.598;2022-12-29T05:17:17;2.77;;;1.23;;
10890;SDS011;5498;50.928;11.598;2022-12-29T05:20:19;2.53;;;1.37;;
10890;SDS011;5498;50.928;11.598;2022-12-29T05:23:22;0.80;;;0.80;;
10890;SDS011;5498;50.928;11.598;2022-12-29T05:26:25;2.57;;;1.33;;
10890;SDS011;5498;50.928;11.598;2022-12-29T05:29:27;2.73;;;1.40;;
10890;SDS011;5498;50.928;11.598;2022-12-29T05:32:28;2.43;;;1.03;;
10890;SDS011;5498;50.928;11.598;2022-12-29T05:35:30;1.80;;;1.20;;
10890;SDS011;5498;50.928;11.598;2022-12-29T05:38:34;1.47;;;1.20;;
10890;SDS011;5498;50.928;11.598;2022-12-29T05:41:36;4.37;;;1.00;;
10890;SDS011;5498;50.928;11.598;2022-12-29T05:44:38;0.87;;;0.83;;
10890;SDS011;5498;50.928;11.598;2022-12-29T05:47:40;4.60;;;1.13;;
10890;SDS011;5498;50.928;11.598;2022-12-29T05:50:42;1.53;;;1.10;;
10890;SDS011;5498;50.928;11.598;2022-12-29T05:53:49;3.00;;;1.20;;
10890;SDS011;5498;50.928;11.598;2022-12-29T05:56:52;2.60;;;1.30;;
10890;SDS011;5498;50.928;11.598;2022-12-29T05:59:54;1.30;;;1.17;;
10890;SDS011;5498;50.928;11.598;2022-12-29T06:02:55;1.10;;;1.00;;
10890;SDS011;5498;50.928;11.598;2022-12-29T06:05:57;1.27;;;1.17;;
10890;SDS011;5498;50.928;11.598;2022-12-29T06:09:00;1.10;;;0.83;;
10890;SDS011;5498;50.928;11.598;2022-12-29T06:12:03;3.67;;;1.37;;
10890;SDS011;5498;50.928;11.598;2022-12-29T06:15:06;1.03;;;0.93;;
10890;SDS011;5498;50.928;11.598;2022-12-29T06:18:11;1.43;;;1.33;;
10890;SDS011;5498;50.928;11.598;2022-12-29T06:21:14;2.97;;;1.00;;
10890;SDS011;5498;50.928;11.598;2022-12-29T06:24:18;2.30;;;0.80;;
10890;SDS011;5498;50.928;11.598;2022-12-29T06:27:19;1.30;;;0.97;;
10890;SDS011;5498;50.928;11.598;2022-12-29T06:30:21;1.33;;;1.23;;
10890;SDS011;5498;50.928;11.598;2022-12-29T06:33:24;1.33;;;1.10;;
10890;SDS011;5498;50.928;11.598;2022-12-29T06:36:26;1.10;;;0.87;;
10890;SDS011;5498;50.928;11.598;2022-12-29T06:39:30;1.30;;;1.20;;
10890;SDS011;5498;50.928;11.598;2022-12-29T06:42:31;1.13;;;0.93;;
10890;SDS011;5498;50.928;11.598;2022-12-29T06:45:33;1.40;;;1.00;;
10890;SDS011;5498;50.928;11.598;2022-12-29T06:48:35;1.20;;;1.10;;
10890;SDS011;5498;50.928;11.598;2022-12-29T06:51:37;1.67;;;0.93;;
10890;SDS011;5498;50.928;11.598;2022-12-29T06:54:40;1.23;;;0.90;;
10890;SDS011;5498;50.928;11.598;2022-12-29T06:57:42;1.63;;;1.17;;
10890;SDS011;5498;50.928;11.598;2022-12-29T07:00:44;1.43;;;1.20;;
10890;SDS011;5498;50.928;11.598;2022-12-29T07:03:46;0.80;;;0.80;;
10890;SDS011;5498;50.928;11.598;2022-12-29T07:06:48;1.20;;;0.80;;
10890;SDS011;5498;50.928;11.598;2022-12-29T07:09:51;1.97;;;1.00;;
10890;SDS011;5498;50.928;11.598;2022-12-29T07:12:53;6.40;;;0.90;;
10890;SDS011;5498;50.928;11.598;2022-12-29T07:15:55;1.07;;;0.83;;
10890;SDS011;5498;50.928;11.598;2022-12-29T07:18:57;1.30;;;1.20;;
10890;SDS011;5498;50.928;11.598;2022-12-29T07:21:59;1.07;;;0.87;;
10890;SDS011;5498;50.928;11.598;2022-12-29T07:25:03;4.73;;;0.90;;
10890;SDS011;5498;50.928;11.598;2022-12-29T07:28:06;1.73;;;1.00;;
10890;SDS011;5498;50.928;11.598;2022-12-29T07:31:11;2.70;;;1.00;;
10890;SDS011;5498;50.928;11.598;2022-12-29T07:34:16;1.40;;;1.07;;
10890;SDS011;5498;50.928;11.598;2022-12-29T07:37:26;1.40;;;1.10;;
10890;SDS011;5498;50.928;11.598;2022-12-29T07:40:30;3.93;;;1.03;;
10890;SDS011;5498;50.928;11.598;2022-12-29T07:43:32;2.00;;;1.10;;
10890;SDS011;5498;50.928;11.598;2022-12-29T07:46:33;3.50;;;1.27;;
10890;SDS011;5498;50.928;11.598;2022-12-29T07:49:35;2.60;;;1.40;;
10890;SDS011;5498;50.928;11.598;2022-12-29T07:52:37;4.50;;;1.00;;
10890;SDS011;5498;50.928;11.598;2022-12-29T07:55:42;1.20;;;1.00;;
10890;SDS011;5498;50.928;11.598;2022-12-29T07:58:44;1.43;;;1.00;;
10890;SDS011;5498;50.928;11.598;2022-12-29T08:01:46;0.60;;;0.60;;
10890;SDS011;5498;50.928;11.598;2022-12-29T08:04:48;2.10;;;0.87;;
10890;SDS011;5498;50.928;11.598;2022-12-29T08:07:50;3.00;;;1.10;;
10890;SDS011;5498;50.928;11.598;2022-12-29T08:10:54;0.63;;;0.63;;
10890;SDS011;5498;50.928;11.598;2022-12-29T08:13:57;2.33;;;0.90;;
10890;SDS011;5498;50.928;11.598;2022-12-29T08:16:59;0.87;;;0.87;;
10890;SDS011;5498;50.928;11.598;2022-12-29T08:20:01;1.10;;;1.00;;
10890;SDS011;5498;50.928;11.598;2022-12-29T08:23:04;1.20;;;1.10;;
10890;SDS011;5498;50.928;11.598;2022-12-29T08:26:07;1.67;;;0.97;;
10890;SDS011;5498;50.928;11.598;2022-12-29T08:29:10;1.03;;;0.80;;
10890;SDS011;5498;50.928;11.598;2022-12-29T08:32:12;2.30;;;1.10;;
10890;SDS011;5498;50.928;11.598;2022-12-29T08:35:28;0.90;;;0.80;;
10890;SDS011;5498;50.928;11.598;2022-12-29T08:38:33;13.97;;;0.90;;
10890;SDS011;5498;50.928;11.598;2022-12-29T08:41:36;3.90;;;1.07;;
10890;SDS011;5498;50.928;11.598;2022-12-29T08:44:38;2.27;;;0.93;;
10890;SDS011;5498;50.928;11.598;2022-12-29T08:47:40;1.10;;;1.00;;
10890;SDS011;5498;50.928;11.598;2022-12-29T08:50:42;2.13;;;1.33;;
10890;SDS011;5498;50.928;11.598;2022-12-29T08:53:44;1.73;;;0.77;;
10890;SDS011;5498;50.928;11.598;2022-12-29T08:56:48;1.67;;;1.57;;
10890;SDS011;5498;50.928;11.598;2022-12-29T08:59:49;1.17;;;1.00;;
10890;SDS011;5498;50.928;11.598;2022-12-29T09:02:51;7.20;;;1.00;;
10890;SDS011;5498;50.928;11.598;2022-12-29T09:05:53;1.90;;;1.17;;
10890;SDS011;5498;50.928;11.598;2022-12-29T09:08:57;1.53;;;1.20;;
10890;SDS011;5498;50.928;11.598;2022-12-29T09:12:00;1.70;;;1.00;;
10890;SDS011;5498;50.928;11.598;2022-12-29T09:15:02;1.73;;;1.00;;
10890;SDS011;5498;50.928;11.598;2022-12-29T09:18:06;1.47;;;0.87;;
10890;SDS011;5498;50.928;11.598;2022-12-29T09:21:09;1.80;;;1.20;;
10890;SDS011;5498;50.928;11.598;2022-12-29T09:24:12;1.07;;;0.97;;
10890;SDS011;5498;50.928;11.598;2022-12-29T09:27:15;0.90;;;0.70;;
10890;SDS011;5498;50.928;11.598;2022-12-29T09:30:17;2.13;;;0.80;;
10890;SDS011;5498;50.928;11.598;2022-12-29T09:33:20;1.13;;;0.70;;
10890;SDS011;5498;50.928;11.598;2022-12-29T09:36:22;3.17;;;1.03;;
10890;SDS011;5498;50.928;11.598;2022-12-29T09:39:24;3.33;;;1.10;;
10890;SDS011;5498;50.928;11.598;2022-12-29T09:42:29;1.50;;;0.93;;
10890;SDS011;5498;50.928;11.598;2022-12-29T09:45:40;1.40;;;1.10;;
10890;SDS011;5498;50.928;11.598;2022-12-29T09:48:46;4.27;;;0.80;;
10890;SDS011;5498;50.928;11.598;2022-12-29T09:51:52;2.93;;;0.90;;
10890;SDS011;5498;50.928;11.598;2022-12-29T09:54:58;1.63;;;1.10;;
10890;SDS011;5498;50.928;11.598;2022-12-29T09:58:05;3.37;;;1.00;;
10890;SDS011;5498;50.928;11.598;2022-12-29T10:01:17;2.67;;;1.07;;
10890;SDS011;5498;50.928;11.598;2022-12-29T10:04:29;0.80;;;0.80;;
10890;SDS011;5498;50.928;11.598;2022-12-29T10:07:33;7.60;;;1.83;;
10890;SDS011;5498;50.928;11.598;2022-12-29T10:10:43;2.20;;;0.77;;
10890;SDS011;5498;50.928;11.598;2022-12-29T10:14:00;5.00;;;1.10;;
10890;SDS011;5498;50.928;11.598;2022-12-29T10:17:23;3.00;;;1.83;;
10890;SDS011;5498;50.928;11.598;2022-12-29T10:20:36;3.37;;;1.80;;
10890;SDS011;5498;50.928;11.598;2022-12-29T10:23:49;3.17;;;1.17;;
10890;SDS011;5498;50.928;11.598;2022-12-29T10:26:53;1.67;;;0.90;;
10890;SDS011;5498;50.928;11.598;2022-12-29T10:29:59;1.63;;;0.90;;
10890;SDS011;5498;50.928;11.598;2022-12-29T10:33:04;2.93;;;0.83;;
10890;SDS011;5498;50.928;11.598;2022-12-29T10:36:10;1.70;;;1.13;;
10890;SDS011;5498;50.928;11.598;2022-12-29T10:39:19;2.50;;;1.37;;
10890;SDS011;5498;50.928;11.598;2022-12-29T10:42:33;3.53;;;1.10;;
10890;SDS011;5498;50.928;11.598;2022-12-29T10:45:54;2.50;;;1.10;;
10890;SDS011;5498;50.928;11.598;2022-12-29T10:48:59;2.60;;;1.00;;
10890;SDS011;5498;50.928;11.598;2022-12-29T10:52:02;2.60;;;0.80;;
10890;SDS011;5498;50.928;11.598;2022-12-29T10:55:08;2.63;;;1.20;;
10890;SDS011;5498;50.928;11.598;2022-12-29T10:58:18;3.70;;;1.07;;
10890;SDS011;5498;50.928;11.598;2022-12-29T11:01:22;4.20;;;1.10;;
10890;SDS011;5498;50.928;11.598;2022-12-29T11:04:35;1.13;;;0.90;;
10890;SDS011;5498;50.928;11.598;2022-12-29T11:07:46;1.40;;;0.87;;
10890;SDS011;5498;50.928;11.598;2022-12-29T11:10:56;1.13;;;1.03;;
10890;SDS011;5498;50.928;11.598;2022-12-29T11:14:02;4.20;;;1.20;;
10890;SDS011;5498;50.928;11.598;2022-12-29T11:17:16;1.67;;;1.10;;
10890;SDS011;5498;50.928;11.598;2022-12-29T11:20:29;1.70;;;1.07;;
10890;SDS011;5498;50.928;11.598;2022-12-29T11:23:34;2.63;;;1.27;;
10890;SDS011;5498;50.928;11.598;2022-12-29T11:26:39;4.80;;;1.30;;
10890;SDS011;5498;50.928;11.598;2022-12-29T11:29:46;2.00;;;1.23;;
10890;SDS011;5498;50.928;11.598;2022-12-29T11:32:51;1.80;;;1.27;;
10890;SDS011;5498;50.928;11.598;2022-12-29T11:35:56;1.90;;;1.27;;
10890;SDS011;5498;50.928;11.598;2022-12-29T11:38:59;1.30;;;1.20;;
10890;SDS011;5498;50.928;11.598;2022-12-29T11:42:02;3.23;;;1.50;;
10890;SDS011;5498;50.928;11.598;2022-12-29T11:45:12;1.40;;;1.30;;
10890;SDS011;5498;50.928;11.598;2022-12-29T11:48:20;2.03;;;1.10;;
10890;SDS011;5498;50.928;11.598;2022-12-29T11:51:22;3.80;;;1.03;;
10890;SDS011;5498;50.928;11.598;2022-12-29T11:54:29;2.87;;;1.37;;
10890;SDS011;5498;50.928;11.598;2022-12-29T11:57:35;4.63;;;1.23;;
10890;SDS011;5498;50.928;11.598;2022-12-29T12:00:37;3.73;;;1.60;;
10890;SDS011;5498;50.928;11.598;2022-12-29T12:03:42;4.10;;;1.47;;
10890;SDS011;5498;50.928;11.598;2022-12-29T12:06:53;1.97;;;1.40;;
10890;SDS011;5498;50.928;11.598;2022-12-29T12:10:01;1.50;;;1.30;;
10890;SDS011;5498;50.928;11.598;2022-12-29T12:13:08;1.20;;;1.10;;
10890;SDS011;5498;50.928;11.598;2022-12-29T12:16:21;1.93;;;1.10;;
10890;SDS011;5498;50.928;11.598;2022-12-29T12:19:31;1.30;;;1.13;;
10890;SDS011;5498;50.928;11.598;2022-12-29T12:22:40;2.70;;;1.50;;
10890;SDS011;5498;50.928;11.598;2022-12-29T12:25:48;1.50;;;1.10;;
10890;SDS011;5498;50.928;11.598;2022-12-29T12:28:59;1.10;;;1.00;;
10890;SDS011;5498;50.928;11.598;2022-12-29T12:32:09;2.00;;;1.30;;
10890;SDS011;5498;50.928;11.598;2022-12-29T12:35:19;5.03;;;1.33;;
10890;SDS011;5498;50.928;11.598;2022-12-29T12:38:32;2.50;;;1.30;;
10890;SDS011;5498;50.928;11.598;2022-12-29T12:41:47;1.90;;;1.20;;
10890;SDS011;5498;50.928;11.598;2022-12-29T12:45:04;2.43;;;0.83;;
10890;SDS011;5498;50.928;11.598;2022-12-29T12:52:08;1.23;;;0.93;;
10890;SDS011;5498;50.928;11.598;2022-12-29T12:55:28;2.17;;;1.27;;
10890;SDS011;5498;50.928;11.598;2022-12-29T12:58:43;1.17;;;0.93;;
10890;SDS011;5498;50.928;11.598;2022-12-29T13:01:53;1.50;;;1.00;;
10890;SDS011;5498;50.928;11.598;2022-12-29T13:08:49;2.33;;;1.00;;
10890;SDS011;5498;50.928;11.598;2022-12-29T13:12:32;1.77;;;0.90;;
10890;SDS011;5498;50.928;11.598;2022-12-29T13:15:45;0.93;;;0.70;;
10890;SDS011;5498;50.928;11.598;2022-12-29T13:18:52;4.07;;;1.10;;
10890;SDS011;5498;50.928;11.598;2022-12-29T13:22:03;3.13;;;1.00;;
10890;SDS011;5498;50.928;11.598;2022-12-29T13:25:24;1.57;;;0.90;;
10890;SDS011;5498;50.928;11.598;2022-12-29T13:28:37;1.87;;;1.10;;
10890;SDS011;5498;50.928;11.598;2022-12-29T13:31:53;2.57;;;1.43;;
10890;SDS011;5498;50.928;11.598;2022-12-29T13:35:07;2.60;;;1.50;;
10890;SDS011;5498;50.928;11.598;2022-12-29T13:38:24;2.67;;;1.23;;
10890;SDS011;5498;50.928;11.598;2022-12-29T13:41:33;1.50;;;1.37;;
10890;SDS011;5498;50.928;11.598;2022-12-29T13:44:40;3.23;;;1.20;;
10890;SDS011;5498;50.928;11.598;2022-12-29T13:47:46;1.57;;;1.47;;
10890;SDS011;5498;50.928;11.598;2022-12-29T13:50:55;2.23;;;1.33;;
10890;SDS011;5498;50.928;11.598;2022-12-29T13:54:02;2.53;;;1.30;;
10890;SDS011;5498;50.928;11.598;2022-12-29T13:57:16;1.97;;;1.27;;
10890;SDS011;5498;50.928;11.598;2022-12-29T14:00:32;3.03;;;1.40;;
10890;SDS011;5498;50.928;11.598;2022-12-29T14:03:47;2.97;;;1.10;;
10890;SDS011;5498;50.928;11.598;2022-12-29T14:06:59;2.60;;;1.33;;
10890;SDS011;5498;50.928;11.598;2022-12-29T14:10:03;1.87;;;1.33;;
10890;SDS011;5498;50.928;11.598;2022-12-29T14:13:10;3.07;;;1.30;;
10890;SDS011;5498;50.928;11.598;2022-12-29T14:16:26;2.73;;;0.93;;
10890;SDS011;5498;50.928;11.598;2022-12-29T14:19:32;1.40;;;1.30;;
10890;SDS011;5498;50.928;11.598;2022-12-29T14:22:36;2.20;;;1.23;;
10890;SDS011;5498;50.928;11.598;2022-12-29T14:26:00;2.07;;;1.10;;
10890;SDS011;5498;50.928;11.598;2022-12-29T14:29:43;2.63;;;1.40;;
10890;SDS011;5498;50.928;11.598;2022-12-29T14:33:00;1.93;;;1.30;;
10890;SDS011;5498;50.928;11.598;2022-12-29T14:36:20;1.23;;;1.00;;
10890;SDS011;5498;50.928;11.598;2022-12-29T14:39:34;3.33;;;1.07;;
10890;SDS011;5498;50.928;11.598;2022-12-29T14:42:39;1.63;;;0.87;;
10890;SDS011;5498;50.928;11.598;2022-12-29T14:45:43;2.20;;;0.80;;
10890;SDS011;5498;50.928;11.598;2022-12-29T14:48:55;0.93;;;0.70;;
10890;SDS011;5498;50.928;11.598;2022-12-29T14:52:04;3.20;;;0.83;;
10890;SDS011;5498;50.928;11.598;2022-12-29T14:55:30;2.33;;;0.90;;
10890;SDS011;5498;50.928;11.598;2022-12-29T14:58:42;1.33;;;0.70;;
10890;SDS011;5498;50.928;11.598;2022-12-29T15:01:53;2.13;;;0.87;;
10890;SDS011;5498;50.928;11.598;2022-12-29T15:04:58;3.27;;;0.70;;
10890;SDS011;5498;50.928;11.598;2022-12-29T15:08:02;1.50;;;0.70;;
10890;SDS011;5498;50.928;11.598;2022-12-29T15:11:06;0.53;;;0.50;;
10890;SDS011;5498;50.928;11.598;2022-12-29T15:14:28;2.47;;;0.97;;
10890;SDS011;5498;50.928;11.598;2022-12-29T15:17:37;1.53;;;0.90;;
10890;SDS011;5498;50.928;11.598;2022-12-29T15:20:39;0.87;;;0.80;;
10890;SDS011;5498;50.928;11.598;2022-12-29T15:23:43;3.07;;;1.20;;
10890;SDS011;5498;50.928;11.598;2022-12-29T15:26:47;4.33;;;1.23;;
10890;SDS011;5498;50.928;11.598;2022-12-29T15:29:56;5.80;;;1.20;;
10890;SDS011;5498;50.928;11.598;2022-12-29T15:33:02;1.77;;;0.90;;
10890;SDS011;5498;50.928;11.598;2022-12-29T15:36:19;3.40;;;1.10;;
10890;SDS011;5498;50.928;11.598;2022-12-29T15:39:27;3.27;;;1.70;;
10890;SDS011;5498;50.928;11.598;2022-12-29T15:42:34;1.10;;;1.00;;
10890;SDS011;5498;50.928;11.598;2022-12-29T15:45:54;1.40;;;1.00;;
10890;SDS011;5498;50.928;11.598;2022-12-29T15:48:57;1.67;;;1.00;;
10890;SDS011;5498;50.928;11.598;2022-12-29T15:52:00;2.10;;;1.33;;
10890;SDS011;5498;50.928;11.598;2022-12-29T15:55:09;3.00;;;1.00;;
10890;SDS011;5498;50.928;11.598;2022-12-29T15:58:23;2.63;;;1.20;;
10890;SDS011;5498;50.928;11.598;2022-12-29T16:01:30;1.97;;;1.10;;
10890;SDS011;5498;50.928;11.598;2022-12-29T16:04:35;3.40;;;1.23;;
10890;SDS011;5498;50.928;11.598;2022-12-29T16:07:39;3.57;;;1.80;;
10890;SDS011;5498;50.928;11.598;2022-12-29T16:10:55;3.17;;;1.50;;
10890;SDS011;5498;50.928;11.598;2022-12-29T16:13:57;4.10;;;0.97;;
10890;SDS011;5498;50.928;11.598;2022-12-29T16:17:00;1.47;;;1.07;;
10890;SDS011;5498;50.928;11.598;2022-12-29T16:20:13;3.23;;;1.40;;
10890;SDS011;5498;50.928;11.598;2022-12-29T16:23:22;2.43;;;1.33;;
10890;SDS011;5498;50.928;11.598;2022-12-29T16:26:27;2.90;;;1.43;;
10890;SDS011;5498;50.928;11.598;2022-12-29T16:29:30;3.90;;;1.40;;
10890;SDS011;5498;50.928;11.598;2022-12-29T16:32:32;3.77;;;1.63;;
10890;SDS011;5498;50.928;11.598;2022-12-29T16:35:39;2.57;;;1.37;;
10890;SDS011;5498;50.928;11.598;2022-12-29T16:38:47;2.90;;;1.50;;
10890;SDS011;5498;50.928;11.598;2022-12-29T16:41:49;2.40;;;1.30;;
10890;SDS011;5498;50.928;11.598;2022-12-29T16:44:52;2.50;;;1.20;;
10890;SDS011;5498;50.928;11.598;2022-12-29T16:48:30;2.30;;;1.13;;
10890;SDS011;5498;50.928;11.598;2022-12-29T16:51:36;1.47;;;1.37;;
10890;SDS011;5498;50.928;11.598;2022-12-29T16:54:40;4.40;;;1.40;;
10890;SDS011;5498;50.928;11.598;2022-12-29T16:57:44;2.57;;;1.17;;
10890;SDS011;5498;50.928;11.598;2022-12-29T17:00:48;2.50;;;1.20;;
10890;SDS011;5498;50.928;11.598;2022-12-29T17:03:51;3.57;;;1.40;;
10890;SDS011;5498;50.928;11.598;2022-12-29T17:06:57;3.97;;;1.40;;
10890;SDS011;5498;50.928;11.598;2022-12-29T17:09:59;2.80;;;1.47;;
10890;SDS011;5498;50.928;11.598;2022-12-29T17:13:00;6.03;;;2.00;;
10890;SDS011;5498;50.928;11.598;2022-12-29T17:16:02;6.67;;;2.07;;
10890;SDS011;5498;50.928;11.598;2022-12-29T17:19:07;3.13;;;1.63;;
10890;SDS011;5498;50.928;11.598;2022-12-29T17:22:16;2.40;;;1.53;;
10890;SDS011;5498;50.928;11.598;2022-12-29T17:25:25;4.13;;;1.80;;
10890;SDS011;5498;50.928;11.598;2022-12-29T17:28:30;4.13;;;1.63;;
10890;SDS011;5498;50.928;11.598;2022-12-29T17:31:33;3.03;;;1.63;;
10890;SDS011;5498;50.928;11.598;2022-12-29T17:34:38;2.00;;;1.70;;
10890;SDS011;5498;50.928;11.598;2022-12-29T17:37:42;2.10;;;1.30;;
10890;SDS011;5498;50.928;11.598;2022-12-29T17:40:44;2.77;;;1.90;;
10890;SDS011;5498;50.928;11.598;2022-12-29T17:43:46;3.83;;;2.17;;
10890;SDS011;5498;50.928;11.598;2022-12-29T17:46:48;3.47;;;2.13;;
10890;SDS011;5498;50.928;11.598;2022-12-29T17:49:50;4.97;;;2.00;;
10890;SDS011;5498;50.928;11.598;2022-12-29T17:52:54;2.70;;;1.90;;
10890;SDS011;5498;50.928;11.598;2022-12-29T17:55:59;4.13;;;2.17;;
10890;SDS011;5498;50.928;11.598;2022-12-29T17:59:02;3.17;;;1.70;;
10890;SDS011;5498;50.928;11.598;2022-12-29T18:02:08;5.83;;;2.80;;
10890;SDS011;5498;50.928;11.598;2022-12-29T18:05:30;3.50;;;2.23;;
10890;SDS011;5498;50.928;11.598;2022-12-29T18:08:34;3.07;;;1.80;;
10890;SDS011;5498;50.928;11.598;2022-12-29T18:11:37;4.80;;;1.83;;
10890;SDS011;5498;50.928;11.598;2022-12-29T18:14:50;4.50;;;2.50;;
10890;SDS011;5498;50.928;11.598;2022-12-29T18:17:53;4.13;;;2.13;;
10890;SDS011;5498;50.928;11.598;2022-12-29T18:21:03;4.43;;;2.37;;
10890;SDS011;5498;50.928;11.598;2022-12-29T18:24:09;8.47;;;2.40;;
10890;SDS011;5498;50.928;11.598;2022-12-29T18:27:16;5.17;;;2.00;;
10890;SDS011;5498;50.928;11.598;2022-12-29T18:30:21;6.23;;;2.23;;
10890;SDS011;5498;50.928;11.598;2022-12-29T18:33:23;7.37;;;2.43;;
10890;SDS011;5498;50.928;11.598;2022-12-29T18:36:26;5.00;;;2.33;;
10890;SDS011;5498;50.928;11.598;2022-12-29T18:39:31;4.23;;;1.80;;
10890;SDS011;5498;50.928;11.598;2022-12-29T18:42:33;5.00;;;2.90;;
10890;SDS011;5498;50.928;11.598;2022-12-29T18:45:35;4.80;;;2.27;;
10890;SDS011;5498;50.928;11.598;2022-12-29T18:48:37;3.90;;;2.50;;
10890;SDS011;5498;50.928;11.598;2022-12-29T18:51:39;5.23;;;2.83;;
10890;SDS011;5498;50.928;11.598;2022-12-29T18:54:42;6.80;;;3.80;;